createdAt,value
2019-05-07T00:02:25.006Z,14.94
2019-05-07T00:04:56.866Z,14.92
2019-05-07T00:07:28.624Z,14.91
2019-05-07T00:10:00.571Z,14.89
2019-05-07T00:12:32.529Z,14.88
2019-05-07T00:15:05.841Z,14.88
2019-05-07T00:17:37.493Z,14.86
2019-05-07T00:20:09.543Z,14.84
2019-05-07T00:22:41.961Z,14.83
2019-05-07T00:25:14.087Z,14.79
2019-05-07T00:27:45.761Z,14.77
2019-05-07T00:30:18.248Z,14.74
2019-05-07T00:32:50.194Z,14.69
2019-05-07T00:35:38.894Z,14.63
2019-05-07T00:38:13.560Z,14.61
2019-05-07T00:40:56.393Z,14.59
2019-05-07T00:43:32.120Z,14.59
2019-05-07T00:46:05.319Z,14.60
2019-05-07T00:48:37.452Z,14.60
2019-05-07T00:51:27.078Z,14.62
2019-05-07T00:53:59.142Z,14.64
2019-05-07T00:56:33.112Z,14.65
2019-05-07T00:59:04.302Z,14.63
2019-05-07T01:01:36.547Z,14.59
2019-05-07T01:04:08.207Z,14.55
2019-05-07T01:06:42.411Z,14.51
2019-05-07T01:09:13.871Z,14.48
2019-05-07T01:11:47.873Z,14.48
2019-05-07T01:14:20.051Z,14.48
2019-05-07T01:16:52.954Z,14.50
2019-05-07T01:19:24.707Z,14.53
2019-05-07T01:21:56.670Z,14.58
2019-05-07T01:24:28.531Z,14.60
2019-05-07T01:27:02.062Z,14.62
2019-05-07T01:29:33.478Z,14.67
2019-05-07T01:32:15.869Z,14.71
2019-05-07T01:34:58.294Z,14.74
2019-05-07T01:37:32.394Z,14.76
2019-05-07T01:40:03.554Z,14.73
2019-05-07T01:42:36.735Z,14.69
2019-05-07T01:45:09.523Z,14.69
2019-05-07T01:47:42.573Z,14.70
2019-05-07T01:50:14.372Z,14.71
2019-05-07T01:52:46.232Z,14.72
2019-05-07T01:55:18.298Z,14.73
2019-05-07T01:57:52.287Z,14.73
2019-05-07T02:00:23.541Z,14.73
2019-05-07T02:02:59.713Z,14.74
2019-05-07T02:05:52.729Z,14.74
2019-05-07T02:08:43.459Z,14.73
2019-05-07T02:11:21.743Z,14.72
2019-05-07T02:13:53.133Z,14.73
2019-05-07T02:16:24.979Z,14.72
2019-05-07T02:18:56.857Z,14.73
2019-05-07T02:21:28.514Z,14.73
2019-05-07T02:24:00.265Z,14.73
2019-05-07T02:26:32.295Z,14.72
2019-05-07T02:29:04.278Z,14.70
2019-05-07T02:31:36.372Z,14.67
2019-05-07T02:34:08.337Z,14.65
2019-05-07T02:36:43.288Z,14.60
2019-05-07T02:39:24.949Z,14.58
2019-05-07T02:41:56.916Z,14.58
2019-05-07T02:44:28.564Z,14.56
2019-05-07T02:47:16.923Z,14.55
2019-05-07T02:49:53.851Z,14.54
2019-05-07T02:52:27.184Z,14.56
2019-05-07T02:55:09.587Z,14.56
2019-05-07T02:57:43.445Z,14.58
2019-05-07T03:00:19.115Z,14.59
2019-05-07T03:02:48.355Z,14.61
2019-05-07T03:05:23.052Z,14.61
2019-05-07T03:07:53.871Z,14.60
2019-05-07T03:10:25.670Z,14.63
2019-05-07T03:12:57.614Z,14.67
2019-05-07T03:15:29.276Z,14.70
2019-05-07T03:18:03.356Z,14.69
2019-05-07T03:20:42.956Z,14.73
2019-05-07T03:23:16.336Z,14.78
2019-05-07T03:25:49.717Z,14.85
2019-05-07T03:28:23.314Z,14.91
2019-05-07T03:31:16.636Z,14.95
2019-05-07T03:33:55.289Z,14.99
2019-05-07T03:36:47.715Z,15.06
2019-05-07T03:39:18.149Z,15.13
2019-05-07T03:41:52.906Z,15.26
2019-05-07T03:44:28.362Z,15.37
2019-05-07T03:47:17.221Z,15.49
2019-05-07T03:49:49.386Z,15.61
2019-05-07T03:52:24.125Z,15.71
2019-05-07T03:54:54.363Z,15.76
2019-05-07T03:57:26.193Z,15.84
2019-05-07T03:59:58.241Z,15.92
2019-05-07T04:02:32.928Z,16.01
2019-05-07T04:05:04.246Z,16.10
2019-05-07T04:07:37.324Z,16.18
2019-05-07T04:10:10.392Z,16.27
2019-05-07T04:12:44.305Z,16.32
2019-05-07T04:15:19.441Z,16.41
2019-05-07T04:17:49.668Z,16.47
2019-05-07T04:20:24.020Z,16.55
2019-05-07T04:22:54.609Z,16.61
2019-05-07T04:25:37.454Z,16.64
2019-05-07T04:28:14.229Z,16.71
2019-05-07T04:30:45.885Z,16.79
2019-05-07T04:33:19.037Z,16.94
2019-05-07T04:36:02.913Z,17.09
2019-05-07T04:38:34.611Z,17.25
2019-05-07T04:41:06.159Z,17.43
2019-05-07T04:43:37.752Z,17.53
2019-05-07T04:46:09.841Z,17.64
2019-05-07T04:48:44.009Z,17.75
2019-05-07T04:51:16.720Z,17.81
2019-05-07T04:53:48.593Z,17.90
2019-05-07T04:56:23.573Z,17.97
2019-05-07T04:58:53.848Z,18.04
2019-05-07T05:01:27.223Z,18.12
2019-05-07T05:03:59.136Z,18.17
2019-05-07T05:06:35.500Z,18.20
2019-05-07T05:09:12.355Z,18.31
2019-05-07T05:11:43.885Z,18.35
2019-05-07T05:14:15.661Z,18.46
2019-05-07T05:16:48.036Z,18.52
2019-05-07T05:19:19.894Z,18.58
2019-05-07T05:21:55.850Z,18.62
2019-05-07T05:24:29.040Z,18.60
2019-05-07T05:27:02.560Z,18.67
2019-05-07T05:29:35.526Z,18.72
2019-05-07T05:32:11.885Z,18.84
2019-05-07T05:34:43.649Z,18.96
2019-05-07T05:37:15.510Z,19.03
2019-05-07T05:39:47.355Z,19.10
2019-05-07T05:42:26.894Z,19.11
2019-05-07T05:44:58.853Z,19.10
2019-05-07T05:47:32.840Z,19.03
2019-05-07T05:50:08.006Z,18.94
2019-05-07T05:52:42.504Z,18.93
2019-05-07T05:55:14.587Z,18.97
2019-05-07T05:57:53.636Z,19.03
2019-05-07T06:00:36.660Z,19.03
2019-05-07T06:03:16.200Z,19.01
2019-05-07T06:05:49.780Z,19.06
2019-05-07T06:08:29.552Z,19.06
2019-05-07T06:11:09.195Z,19.03
2019-05-07T06:13:45.458Z,19.04
2019-05-07T06:16:18.961Z,19.08
2019-05-07T06:18:55.297Z,19.11
2019-05-07T06:21:45.199Z,19.18
2019-05-07T06:24:18.802Z,19.27
2019-05-07T06:26:52.230Z,19.42
2019-05-07T06:29:23.953Z,19.57
2019-05-07T06:31:57.337Z,19.67
2019-05-07T06:34:30.271Z,19.78
2019-05-07T06:37:02.376Z,19.91
2019-05-07T06:39:48.273Z,19.99
2019-05-07T06:42:22.217Z,20.08
2019-05-07T06:45:12.343Z,20.17
2019-05-07T06:47:44.333Z,20.25
2019-05-07T06:50:16.525Z,20.35
2019-05-07T06:52:48.178Z,20.49
2019-05-07T06:55:20.039Z,20.65
2019-05-07T06:57:53.022Z,20.75
2019-05-07T07:00:27.205Z,20.92
2019-05-07T07:03:02.500Z,21.06
2019-05-07T07:05:35.366Z,21.20
2019-05-07T07:08:12.511Z,21.30
2019-05-07T07:11:02.742Z,21.38
2019-05-07T07:13:35.113Z,21.47
2019-05-07T07:16:07.071Z,21.62
2019-05-07T07:18:49.558Z,21.70
2019-05-07T07:21:12.483Z,21.77
2019-05-07T07:23:44.087Z,21.83
2019-05-07T07:26:15.843Z,21.91
2019-05-07T07:28:47.621Z,22.03
2019-05-07T07:31:31.723Z,22.17
2019-05-07T07:34:04.412Z,22.19
2019-05-07T07:36:37.621Z,22.21
2019-05-07T07:39:09.719Z,22.29
2019-05-07T07:41:43.891Z,22.41
2019-05-07T07:44:15.560Z,22.59
2019-05-07T07:46:47.504Z,22.81
2019-05-07T07:49:19.310Z,23.13
2019-05-07T07:51:52.601Z,23.35
2019-05-07T07:54:24.517Z,23.42
2019-05-07T07:56:58.119Z,23.36
2019-05-07T07:59:49.457Z,23.34
2019-05-07T08:02:28.875Z,23.34
2019-05-07T08:05:02.114Z,23.39
2019-05-07T08:07:35.088Z,23.48
2019-05-07T08:10:07.321Z,23.49
2019-05-07T08:12:38.877Z,23.57
2019-05-07T08:15:18.063Z,23.56
2019-05-07T08:17:44.658Z,23.59
2019-05-07T08:20:17.598Z,23.70
2019-05-07T08:22:52.681Z,23.87
2019-05-07T08:25:48.794Z,24.01
2019-05-07T08:28:23.118Z,24.17
2019-05-07T08:31:03.016Z,24.09
2019-05-07T08:33:39.339Z,24.08
2019-05-07T08:36:14.889Z,24.19
2019-05-07T08:38:52.899Z,24.41
2019-05-07T08:41:25.684Z,24.65
2019-05-07T08:44:11.547Z,24.72
2019-05-07T08:46:52.339Z,24.78
2019-05-07T08:49:35.740Z,24.86
2019-05-07T08:52:03.454Z,24.84
2019-05-07T08:54:34.979Z,24.73
2019-05-07T08:57:06.974Z,24.63
2019-05-07T08:59:38.804Z,24.62
2019-05-07T09:02:12.602Z,24.68
2019-05-07T09:04:44.470Z,24.70
2019-05-07T09:07:16.309Z,24.83
2019-05-07T09:09:48.391Z,24.91
2019-05-07T09:12:22.728Z,25.02
2019-05-07T09:14:53.263Z,25.04
2019-05-07T09:17:24.790Z,25.07
2019-05-07T09:19:56.448Z,25.07
2019-05-07T09:22:28.431Z,25.15
2019-05-07T09:25:02.898Z,25.35
2019-05-07T09:27:38.083Z,25.40
2019-05-07T09:30:17.598Z,25.40
2019-05-07T09:33:02.890Z,25.48
2019-05-07T09:35:39.874Z,25.57
2019-05-07T09:38:12.156Z,25.66
2019-05-07T09:40:44.013Z,25.76
2019-05-07T09:43:17.541Z,25.86
2019-05-07T09:45:49.147Z,26.00
2019-05-07T09:48:22.122Z,26.15
2019-05-07T09:50:54.697Z,26.19
2019-05-07T09:53:26.577Z,26.23
2019-05-07T09:55:58.422Z,26.30
2019-05-07T09:58:36.469Z,26.49
2019-05-07T10:01:04.084Z,26.73
2019-05-07T10:03:35.758Z,26.84
2019-05-07T10:06:07.746Z,26.98
2019-05-07T10:08:39.373Z,27.09
2019-05-07T10:11:13.695Z,27.30
2019-05-07T10:13:47.092Z,27.60
2019-05-07T10:16:19.688Z,27.82
2019-05-07T10:18:52.025Z,27.82
2019-05-07T10:21:23.572Z,28.03
2019-05-07T10:23:55.227Z,28.21
2019-05-07T10:26:27.309Z,28.14
2019-05-07T10:28:59.152Z,28.06
2019-05-07T10:31:32.012Z,27.89
2019-05-07T10:34:04.003Z,27.97
2019-05-07T10:36:35.860Z,27.84
2019-05-07T10:39:08.857Z,27.65
2019-05-07T10:41:42.474Z,27.57
2019-05-07T10:44:14.340Z,27.66
2019-05-07T10:47:02.466Z,27.76
2019-05-07T10:49:36.069Z,27.89
2019-05-07T10:52:07.340Z,27.94
2019-05-07T10:54:38.867Z,27.97
2019-05-07T10:57:11.945Z,28.01
2019-05-07T10:59:43.716Z,27.99
2019-05-07T11:02:23.256Z,27.83
2019-05-07T11:04:55.116Z,27.77
2019-05-07T11:07:26.959Z,27.68
2019-05-07T11:09:58.838Z,27.66
2019-05-07T11:12:31.987Z,27.61
2019-05-07T11:15:05.119Z,27.54
2019-05-07T11:17:48.457Z,27.45
2019-05-07T11:20:22.622Z,27.27
2019-05-07T11:22:54.304Z,27.29
2019-05-07T11:25:26.177Z,27.33
2019-05-07T11:27:58.018Z,27.38
2019-05-07T11:30:31.971Z,27.16
2019-05-07T11:33:03.190Z,27.08
2019-05-07T11:35:35.258Z,26.87
2019-05-07T11:38:18.662Z,26.82
2019-05-07T11:40:42.699Z,26.60
2019-05-07T11:43:24.643Z,26.50
2019-05-07T11:45:59.041Z,26.39
2019-05-07T11:48:36.206Z,26.40
2019-05-07T11:51:15.205Z,26.24
2019-05-07T11:54:04.872Z,26.13
2019-05-07T11:56:37.243Z,25.88
2019-05-07T11:59:09.190Z,25.68
2019-05-07T12:01:47.201Z,25.09
2019-05-07T12:04:16.512Z,25.09
2019-05-07T12:06:48.474Z,24.87
2019-05-07T12:09:21.855Z,24.82
2019-05-07T12:11:53.509Z,24.72
2019-05-07T12:14:31.367Z,24.74
2019-05-07T12:16:58.574Z,24.67
2019-05-07T12:19:30.417Z,24.70
2019-05-07T12:22:02.753Z,24.66
2019-05-07T12:24:34.363Z,24.70
2019-05-07T12:27:06.533Z,24.67
2019-05-07T12:29:38.185Z,24.65
2019-05-07T12:32:22.098Z,24.62
2019-05-07T12:34:54.728Z,24.54
2019-05-07T12:37:26.055Z,24.56
2019-05-07T12:39:57.917Z,24.58
2019-05-07T12:42:29.856Z,24.69
2019-05-07T12:45:02.958Z,24.90
2019-05-07T12:47:34.606Z,25.23
2019-05-07T12:50:07.389Z,25.62
2019-05-07T12:52:55.752Z,25.86
2019-05-07T12:55:35.190Z,25.98
2019-05-07T12:58:07.149Z,26.25
2019-05-07T13:00:56.100Z,26.30
2019-05-07T13:03:35.141Z,26.04
2019-05-07T13:06:06.901Z,26.11
2019-05-07T13:08:38.740Z,26.06
2019-05-07T13:11:13.096Z,26.02
2019-05-07T13:13:44.015Z,26.04
2019-05-07T13:16:16.065Z,26.27
2019-05-07T13:18:49.151Z,26.36
2019-05-07T13:21:22.589Z,26.48
2019-05-07T13:23:54.205Z,26.78
2019-05-07T13:26:26.593Z,26.80
2019-05-07T13:28:58.537Z,26.59
2019-05-07T13:31:32.814Z,26.62
2019-05-07T13:34:05.927Z,26.43
2019-05-07T13:36:39.383Z,25.90
2019-05-07T13:39:13.179Z,25.53
2019-05-07T13:41:48.702Z,25.53
2019-05-07T13:44:27.744Z,25.27
2019-05-07T13:47:02.045Z,24.92
2019-05-07T13:49:34.283Z,24.79
2019-05-07T13:52:06.507Z,24.73
2019-05-07T13:54:38.149Z,24.80
2019-05-07T13:57:11.975Z,24.62
2019-05-07T13:59:43.510Z,24.41
2019-05-07T14:02:17.007Z,24.58
2019-05-07T14:04:48.973Z,24.77
2019-05-07T14:07:21.737Z,24.88
2019-05-07T14:09:53.924Z,24.87
2019-05-07T14:12:25.787Z,24.90
2019-05-07T14:14:57.748Z,24.73
2019-05-07T14:17:30.017Z,24.47
2019-05-07T14:20:04.902Z,24.14
2019-05-07T14:22:35.274Z,24.02
2019-05-07T14:25:07.958Z,23.98
2019-05-07T14:27:39.807Z,23.96
2019-05-07T14:30:13.014Z,24.00
2019-05-07T14:32:55.409Z,23.88
2019-05-07T14:35:28.805Z,23.58
2019-05-07T14:38:08.023Z,23.29
2019-05-07T14:40:40.104Z,23.01
2019-05-07T14:43:16.454Z,22.84
2019-05-07T14:45:48.330Z,22.67
2019-05-07T14:48:19.882Z,22.53
2019-05-07T14:50:53.027Z,22.41
2019-05-07T14:53:24.816Z,22.33
2019-05-07T14:55:56.674Z,22.21
2019-05-07T14:58:28.538Z,22.15
2019-05-07T15:01:02.421Z,22.10
2019-05-07T15:03:34.003Z,22.06
2019-05-07T15:06:05.959Z,22.01
2019-05-07T15:08:37.928Z,22.03
2019-05-07T15:11:10.108Z,22.04
2019-05-07T15:13:42.751Z,22.02
2019-05-07T15:16:14.816Z,21.75
2019-05-07T15:18:52.960Z,21.30
2019-05-07T15:21:24.721Z,20.88
2019-05-07T15:23:56.763Z,20.47
2019-05-07T15:26:28.951Z,20.29
2019-05-07T15:29:03.168Z,20.08
2019-05-07T15:31:36.869Z,19.69
2019-05-07T15:34:08.833Z,19.31
2019-05-07T15:36:42.378Z,19.07
2019-05-07T15:39:14.085Z,18.85
2019-05-07T15:41:45.930Z,18.76
2019-05-07T15:44:17.914Z,18.65
2019-05-07T15:46:52.125Z,18.51
2019-05-07T15:49:23.791Z,18.41
2019-05-07T15:51:57.371Z,18.37
2019-05-07T15:54:29.435Z,18.26
2019-05-07T15:57:03.032Z,18.13
2019-05-07T15:59:35.117Z,17.96
2019-05-07T16:02:17.916Z,17.81
2019-05-07T16:04:50.000Z,17.70
2019-05-07T16:07:22.531Z,17.62
2019-05-07T16:09:55.358Z,17.54
2019-05-07T16:12:26.996Z,17.49
2019-05-07T16:14:59.185Z,17.42
2019-05-07T16:17:32.977Z,17.40
2019-05-07T16:20:05.769Z,17.35
2019-05-07T16:22:52.608Z,17.29
2019-05-07T16:25:25.052Z,17.27
2019-05-07T16:27:58.041Z,17.17
2019-05-07T16:30:29.680Z,17.07
2019-05-07T16:33:02.299Z,16.98
2019-05-07T16:35:33.930Z,16.93
2019-05-07T16:38:05.881Z,16.87
2019-05-07T16:40:37.938Z,16.82
2019-05-07T16:43:11.915Z,16.74
2019-05-07T16:45:43.312Z,16.67
2019-05-07T16:48:15.083Z,16.61
2019-05-07T16:50:46.915Z,16.55
2019-05-07T16:53:27.509Z,16.47
2019-05-07T16:55:52.361Z,16.40
2019-05-07T16:58:28.776Z,16.32
2019-05-07T17:01:02.383Z,16.26
2019-05-07T17:03:39.021Z,16.18
2019-05-07T17:06:12.437Z,16.13
2019-05-07T17:09:04.464Z,16.05
2019-05-07T17:11:37.758Z,15.99
2019-05-07T17:14:12.722Z,15.92
2019-05-07T17:16:43.817Z,15.85
2019-05-07T17:19:16.090Z,15.78
2019-05-07T17:21:48.184Z,15.71
2019-05-07T17:24:22.204Z,15.66
2019-05-07T17:26:53.638Z,15.60
2019-05-07T17:29:25.386Z,15.55
2019-05-07T17:31:57.257Z,15.50
2019-05-07T17:34:29.112Z,15.44
2019-05-07T17:37:02.464Z,15.39
2019-05-07T17:39:34.464Z,15.34
2019-05-07T17:42:06.226Z,15.33
2019-05-07T17:44:38.073Z,15.35
2019-05-07T17:47:09.948Z,15.40
2019-05-07T17:49:42.751Z,15.44
2019-05-07T17:52:14.484Z,15.50
2019-05-07T17:54:46.329Z,15.53
2019-05-07T17:57:18.189Z,15.56
2019-05-07T17:59:52.453Z,15.57
2019-05-07T18:02:34.317Z,15.60
2019-05-07T18:05:07.634Z,15.62
2019-05-07T18:07:39.377Z,15.67
2019-05-07T18:10:12.537Z,15.71
2019-05-07T18:12:44.628Z,15.75
2019-05-07T18:15:16.572Z,15.79
2019-05-07T18:18:00.873Z,15.81
2019-05-07T18:20:33.313Z,15.83
2019-05-07T18:23:08.704Z,15.85
2019-05-07T18:25:38.984Z,15.88
2019-05-07T18:28:12.295Z,15.91
2019-05-07T18:30:44.115Z,15.91
2019-05-07T18:33:17.430Z,15.91
2019-05-07T18:35:52.575Z,15.90
2019-05-07T18:38:24.527Z,15.90
2019-05-07T18:40:56.373Z,15.91
2019-05-07T18:43:28.436Z,15.87
2019-05-07T18:46:02.249Z,15.82
2019-05-07T18:48:33.689Z,15.80
2019-05-07T18:51:06.399Z,15.78
2019-05-07T18:53:38.354Z,15.75
2019-05-07T18:56:10.092Z,15.72
2019-05-07T18:58:42.735Z,15.70
2019-05-07T19:01:15.782Z,15.66
2019-05-07T19:03:47.944Z,15.58
2019-05-07T19:06:22.319Z,15.52
2019-05-07T19:08:54.124Z,15.46
2019-05-07T19:11:26.291Z,15.40
2019-05-07T19:13:57.943Z,15.38
2019-05-07T19:16:32.186Z,15.41
2019-05-07T19:19:03.407Z,15.44
2019-05-07T19:21:35.352Z,15.46
2019-05-07T19:24:07.122Z,15.45
2019-05-07T19:26:38.781Z,15.40
2019-05-07T19:29:12.423Z,15.34
2019-05-07T19:31:44.137Z,15.29
2019-05-07T19:34:15.984Z,15.23
2019-05-07T19:36:47.754Z,15.19
2019-05-07T19:39:19.824Z,15.11
2019-05-07T19:41:52.476Z,15.04
2019-05-07T19:44:24.268Z,14.93
2019-05-07T19:46:56.122Z,14.84
2019-05-07T19:49:27.981Z,14.75
2019-05-07T19:52:01.738Z,14.67
2019-05-07T19:54:33.454Z,14.58
2019-05-07T19:57:05.609Z,14.52
2019-05-07T19:59:37.244Z,14.45
2019-05-07T20:02:12.243Z,14.39
2019-05-07T20:04:44.057Z,14.34
2019-05-07T20:07:16.248Z,14.26
2019-05-07T20:09:47.863Z,14.21
2019-05-07T20:12:19.927Z,14.17
2019-05-07T20:14:51.890Z,14.10
2019-05-07T20:17:23.871Z,14.06
2019-05-07T20:19:55.832Z,14.00
2019-05-07T20:22:27.881Z,13.94
2019-05-07T20:25:13.280Z,13.89
2019-05-07T20:27:34.374Z,13.85
2019-05-07T20:30:07.888Z,13.81
2019-05-07T20:32:42.813Z,13.77
2019-05-07T20:35:15.804Z,13.74
2019-05-07T20:37:47.749Z,13.72
2019-05-07T20:40:19.506Z,13.74
2019-05-07T20:42:52.484Z,13.78
2019-05-07T20:45:24.369Z,13.82
2019-05-07T20:47:56.103Z,13.91
2019-05-07T20:50:28.215Z,14.01
2019-05-07T20:53:01.905Z,14.09
2019-05-07T20:55:47.159Z,14.14
2019-05-07T20:58:19.133Z,14.21
2019-05-07T21:00:52.639Z,14.23
2019-05-07T21:03:24.312Z,14.22
2019-05-07T21:05:56.237Z,14.19
2019-05-07T21:08:28.039Z,14.17
2019-05-07T21:11:02.357Z,14.14
2019-05-07T21:13:34.969Z,14.14
2019-05-07T21:16:06.750Z,14.13
2019-05-07T21:18:38.687Z,14.13
2019-05-07T21:21:12.483Z,14.11
2019-05-07T21:23:43.896Z,14.07
2019-05-07T21:26:15.545Z,14.05
2019-05-07T21:28:47.502Z,14.02
2019-05-07T21:31:19.470Z,13.98
2019-05-07T21:33:52.392Z,13.96
2019-05-07T21:36:24.192Z,13.94
2019-05-07T21:38:56.071Z,13.96
2019-05-07T21:41:27.930Z,14.01
2019-05-07T21:43:59.908Z,14.05
2019-05-07T21:46:32.977Z,14.10
2019-05-07T21:49:04.971Z,14.11
2019-05-07T21:51:36.907Z,14.16
2019-05-07T21:54:23.683Z,14.21
2019-05-07T21:56:58.038Z,14.24
2019-05-07T21:59:35.495Z,14.27
2019-05-07T22:02:16.995Z,14.33
2019-05-07T22:04:49.075Z,14.36
2019-05-07T22:07:22.726Z,14.39
2019-05-07T22:09:54.539Z,14.41
2019-05-07T22:12:26.424Z,14.40
2019-05-07T22:14:58.245Z,14.41
2019-05-07T22:17:30.221Z,14.42
2019-05-07T22:20:03.063Z,14.42
2019-05-07T22:22:35.176Z,14.40
2019-05-07T22:25:07.956Z,14.38
2019-05-07T22:27:42.234Z,14.37
2019-05-07T22:30:15.768Z,14.32
2019-05-07T22:32:55.283Z,14.27
2019-05-07T22:35:28.899Z,14.22
2019-05-07T22:38:18.796Z,14.16
2019-05-07T22:40:52.279Z,14.12
2019-05-07T22:43:24.133Z,14.10
2019-05-07T22:45:55.807Z,14.09
2019-05-07T22:48:27.554Z,14.07
2019-05-07T22:50:59.529Z,14.04
2019-05-07T22:53:32.803Z,14.01
2019-05-07T22:56:05.586Z,13.97
2019-05-07T22:58:38.983Z,13.98
2019-05-07T23:01:13.087Z,13.97
2019-05-07T23:03:44.871Z,13.98
2019-05-07T23:06:16.713Z,13.95
2019-05-07T23:08:48.695Z,13.96
2019-05-07T23:11:22.932Z,14.00
2019-05-07T23:13:54.937Z,14.02
2019-05-07T23:16:26.731Z,14.05
2019-05-07T23:18:59.006Z,14.08
2019-05-07T23:21:32.012Z,14.10
2019-05-07T23:24:04.856Z,14.09
2019-05-07T23:26:49.673Z,14.09
2019-05-07T23:29:11.860Z,14.13
2019-05-07T23:31:43.630Z,14.14
2019-05-07T23:34:15.693Z,14.14
2019-05-07T23:36:48.893Z,14.13
2019-05-07T23:39:22.288Z,14.12
2019-05-07T23:42:13.903Z,14.12
2019-05-07T23:44:45.766Z,14.09
2019-05-07T23:47:17.935Z,14.05
2019-05-07T23:49:52.232Z,14.02
2019-05-07T23:52:23.293Z,13.98
2019-05-07T23:54:55.151Z,13.96
2019-05-07T23:57:27.010Z,13.98
2019-05-07T23:59:58.766Z,14.02
